createdAt,value
2022-08-28T00:02:03.356Z,78.00
2022-08-28T00:04:31.019Z,78.00
2022-08-28T00:06:58.413Z,78.00
2022-08-28T00:09:25.837Z,78.10
2022-08-28T00:11:53.893Z,78.10
2022-08-28T00:14:22.977Z,78.10
2022-08-28T00:16:51.285Z,78.20
2022-08-28T00:19:20.301Z,78.20
2022-08-28T00:21:48.398Z,78.40
2022-08-28T00:24:16.200Z,78.40
2022-08-28T00:27:02.312Z,78.50
2022-08-28T00:29:30.284Z,78.70
2022-08-28T00:31:57.481Z,79.10
2022-08-28T00:34:29.638Z,79.30
2022-08-28T00:37:00.963Z,79.20
2022-08-28T00:39:28.195Z,79.20
2022-08-28T00:41:57.849Z,79.30
2022-08-28T00:44:28.904Z,79.70
2022-08-28T00:46:59.271Z,80.60
2022-08-28T00:49:31.568Z,80.00
2022-08-28T00:52:12.384Z,80.00
2022-08-28T00:55:00.586Z,80.20
2022-08-28T00:57:45.085Z,80.60
2022-08-28T01:00:25.123Z,80.60
2022-08-28T01:02:53.305Z,80.80
2022-08-28T01:05:21.524Z,80.80
2022-08-28T01:07:50.352Z,80.70
2022-08-28T01:10:22.568Z,81.00
2022-08-28T01:12:51.149Z,81.20
2022-08-28T01:15:24.197Z,81.10
2022-08-28T01:17:57.618Z,81.40
2022-08-28T01:20:32.325Z,81.50
2022-08-28T01:23:53.186Z,81.60
2022-08-28T01:26:21.308Z,81.40
2022-08-28T01:28:49.010Z,81.60
2022-08-28T01:31:18.689Z,81.50
2022-08-28T01:33:47.941Z,81.40
2022-08-28T01:36:17.861Z,81.40
2022-08-28T01:38:50.727Z,81.40
2022-08-28T01:41:17.856Z,81.60
2022-08-28T01:43:45.428Z,81.50
2022-08-28T01:46:12.974Z,81.40
2022-08-28T01:48:45.585Z,81.30
2022-08-28T01:51:14.619Z,81.40
2022-08-28T01:53:45.069Z,81.30
2022-08-28T01:56:17.958Z,81.20
2022-08-28T01:58:48.156Z,81.20
2022-08-28T02:01:20.309Z,81.20
2022-08-28T02:03:48.998Z,81.40
2022-08-28T02:06:17.933Z,81.20
2022-08-28T02:08:46.708Z,81.10
2022-08-28T02:11:14.061Z,81.10
2022-08-28T02:13:41.401Z,81.10
2022-08-28T02:16:10.806Z,81.00
2022-08-28T02:18:38.401Z,81.10
2022-08-28T02:21:07.613Z,81.10
2022-08-28T02:23:36.257Z,81.10
2022-08-28T02:26:03.392Z,80.90
2022-08-28T02:28:31.093Z,80.90
2022-08-28T02:30:58.174Z,81.00
2022-08-28T02:33:25.629Z,80.90
2022-08-28T02:35:53.549Z,80.80
2022-08-28T02:38:20.927Z,80.60
2022-08-28T02:40:48.077Z,80.60
2022-08-28T02:43:15.148Z,80.60
2022-08-28T02:45:42.150Z,80.50
2022-08-28T02:48:16.662Z,80.50
2022-08-28T02:50:46.117Z,80.40
2022-08-28T02:53:13.852Z,80.40
2022-08-28T02:55:40.965Z,80.30
2022-08-28T02:58:09.686Z,80.50
2022-08-28T03:00:36.909Z,80.30
2022-08-28T03:03:04.595Z,80.50
2022-08-28T03:05:32.085Z,80.50
2022-08-28T03:07:59.265Z,80.40
2022-08-28T03:10:26.419Z,80.50
2022-08-28T03:12:53.516Z,80.50
2022-08-28T03:15:21.162Z,80.70
2022-08-28T03:17:48.781Z,80.80
2022-08-28T03:20:18.057Z,80.80
2022-08-28T03:23:03.855Z,80.80
2022-08-28T03:25:30.976Z,80.80
2022-08-28T03:27:58.003Z,80.80
2022-08-28T03:30:25.285Z,80.80
2022-08-28T03:32:52.402Z,80.80
2022-08-28T03:35:20.376Z,80.90
2022-08-28T03:37:47.829Z,80.90
2022-08-28T03:40:15.269Z,80.90
2022-08-28T03:42:43.278Z,81.00
2022-08-28T03:45:20.589Z,81.00
2022-08-28T03:47:47.597Z,81.00
2022-08-28T03:50:16.805Z,80.90
2022-08-28T03:52:44.079Z,81.00
2022-08-28T03:55:12.980Z,81.00
2022-08-28T03:57:40.341Z,81.20
2022-08-28T04:00:11.623Z,81.10
2022-08-28T04:02:43.573Z,81.20
2022-08-28T04:05:11.592Z,81.20
2022-08-28T04:07:40.447Z,81.20
2022-08-28T04:10:08.774Z,81.20
2022-08-28T04:12:37.136Z,81.20
2022-08-28T04:15:07.060Z,81.20
2022-08-28T04:17:35.032Z,81.30
2022-08-28T04:20:02.197Z,81.30
2022-08-28T04:22:30.643Z,81.30
2022-08-28T04:24:57.712Z,81.40
2022-08-28T04:27:24.813Z,81.40
2022-08-28T04:29:52.125Z,81.40
2022-08-28T04:32:19.165Z,81.40
2022-08-28T04:34:46.365Z,81.30
2022-08-28T04:37:13.412Z,81.30
2022-08-28T04:39:40.800Z,81.30
2022-08-28T04:42:08.013Z,80.80
2022-08-28T04:44:36.153Z,81.40
2022-08-28T04:47:03.361Z,81.40
2022-08-28T04:49:33.621Z,81.40
2022-08-28T04:52:00.734Z,81.30
2022-08-28T04:54:28.065Z,81.40
2022-08-28T04:56:55.257Z,81.40
2022-08-28T04:59:22.599Z,81.50
2022-08-28T05:01:49.640Z,81.30
2022-08-28T05:04:17.608Z,81.30
2022-08-28T05:06:46.333Z,81.40
2022-08-28T05:09:17.585Z,81.40
2022-08-28T05:11:46.437Z,81.50
2022-08-28T05:14:16.277Z,81.40
2022-08-28T05:16:48.821Z,81.40
2022-08-28T05:19:18.614Z,81.50
2022-08-28T05:21:46.243Z,81.40
2022-08-28T05:24:14.052Z,81.50
2022-08-28T05:26:41.667Z,81.50
2022-08-28T05:29:10.138Z,81.50
2022-08-28T05:31:41.541Z,81.40
2022-08-28T05:34:10.567Z,81.30
2022-08-28T05:36:39.313Z,81.30
2022-08-28T05:39:10.988Z,81.20
2022-08-28T05:41:42.165Z,81.10
2022-08-28T05:44:12.992Z,81.00
2022-08-28T05:46:44.214Z,81.00
2022-08-28T05:49:13.368Z,80.90
2022-08-28T05:51:42.654Z,80.90
2022-08-28T05:54:11.317Z,80.90
2022-08-28T05:56:41.361Z,80.90
2022-08-28T05:59:11.618Z,80.90
2022-08-28T06:01:43.498Z,80.90
2022-08-28T06:04:15.277Z,81.00
2022-08-28T06:06:42.688Z,80.90
2022-08-28T06:09:17.374Z,81.00
2022-08-28T06:11:46.287Z,80.80
2022-08-28T06:14:18.079Z,80.80
2022-08-28T06:16:53.771Z,80.60
2022-08-28T06:19:25.111Z,80.50
2022-08-28T06:21:57.382Z,80.20
2022-08-28T06:24:26.102Z,80.20
2022-08-28T06:26:53.128Z,80.10
2022-08-28T06:29:25.472Z,80.00
2022-08-28T06:32:00.928Z,80.00
2022-08-28T06:34:29.223Z,80.80
2022-08-28T06:36:56.290Z,80.10
2022-08-28T06:39:24.187Z,80.00
2022-08-28T06:41:51.373Z,79.90
2022-08-28T06:44:23.316Z,79.80
2022-08-28T06:46:53.685Z,79.80
2022-08-28T06:49:21.688Z,79.70
2022-08-28T06:51:49.557Z,79.50
2022-08-28T06:54:22.391Z,79.50
2022-08-28T06:56:54.121Z,79.50
2022-08-28T06:59:21.183Z,79.40
2022-08-28T07:01:48.566Z,79.20
2022-08-28T07:04:15.937Z,79.10
2022-08-28T07:06:53.777Z,79.10
2022-08-28T07:09:21.712Z,79.10
2022-08-28T07:11:49.499Z,79.10
2022-08-28T07:14:16.717Z,79.10
2022-08-28T07:16:44.451Z,79.10
2022-08-28T07:19:13.609Z,79.10
2022-08-28T07:21:44.685Z,79.00
2022-08-28T07:24:14.636Z,79.00
2022-08-28T07:26:43.889Z,78.90
2022-08-28T07:29:11.825Z,78.90
2022-08-28T07:31:46.448Z,78.70
2022-08-28T07:34:14.530Z,78.60
2022-08-28T07:36:42.391Z,78.70
2022-08-28T07:39:11.539Z,78.90
2022-08-28T07:41:42.628Z,78.80
2022-08-28T07:44:32.466Z,78.90
2022-08-28T07:47:04.311Z,78.90
2022-08-28T07:49:33.912Z,78.80
2022-08-28T07:52:01.843Z,78.80
2022-08-28T07:54:28.941Z,78.90
2022-08-28T07:56:56.004Z,79.00
2022-08-28T07:59:23.307Z,79.10
2022-08-28T08:01:51.880Z,79.00
2022-08-28T08:04:21.709Z,79.00
2022-08-28T08:06:51.375Z,79.20
2022-08-28T08:09:22.332Z,79.20
2022-08-28T08:11:49.622Z,79.10
2022-08-28T08:14:17.340Z,79.10
2022-08-28T08:16:46.937Z,79.20
2022-08-28T08:19:16.211Z,79.20
2022-08-28T08:21:48.417Z,79.10
2022-08-28T08:24:21.191Z,78.90
2022-08-28T08:26:59.274Z,79.00
2022-08-28T08:29:32.465Z,79.00
2022-08-28T08:32:06.057Z,79.10
2022-08-28T08:34:38.543Z,79.10
2022-08-28T08:37:05.991Z,79.00
2022-08-28T08:39:35.966Z,78.90
2022-08-28T08:42:08.235Z,78.80
2022-08-28T08:44:46.876Z,78.90
2022-08-28T08:47:23.438Z,78.80
2022-08-28T08:49:58.991Z,78.70
2022-08-28T08:52:56.728Z,78.30
2022-08-28T08:55:31.383Z,78.30
2022-08-28T08:58:26.023Z,78.40
2022-08-28T09:01:20.441Z,78.60
2022-08-28T09:03:59.489Z,78.20
2022-08-28T09:06:51.210Z,78.40
2022-08-28T09:09:51.661Z,78.30
2022-08-28T09:12:26.592Z,78.20
2022-08-28T09:14:58.082Z,78.20
2022-08-28T09:17:37.444Z,78.20
2022-08-28T09:20:11.818Z,78.10
2022-08-28T09:22:45.281Z,78.20
2022-08-28T09:25:50.865Z,78.00
2022-08-28T09:28:39.159Z,78.00
2022-08-28T09:31:31.947Z,78.20
2022-08-28T09:34:19.196Z,78.20
2022-08-28T09:36:46.588Z,78.20
2022-08-28T09:39:33.965Z,78.30
2022-08-28T09:42:41.815Z,78.40
2022-08-28T09:45:18.608Z,78.40
2022-08-28T09:48:00.722Z,78.50
2022-08-28T09:50:44.506Z,78.40
2022-08-28T09:53:14.077Z,78.80
2022-08-28T09:56:03.606Z,79.10
2022-08-28T09:58:38.703Z,79.00
2022-08-28T10:01:38.474Z,79.00
2022-08-28T10:04:15.939Z,79.00
2022-08-28T10:07:09.963Z,79.30
2022-08-28T10:10:29.112Z,78.60
2022-08-28T10:13:08.239Z,78.30
2022-08-28T10:15:59.030Z,77.50
2022-08-28T10:19:11.858Z,77.70
2022-08-28T10:21:51.578Z,77.40
2022-08-28T10:24:46.616Z,77.50
2022-08-28T10:27:33.542Z,77.20
2022-08-28T10:30:14.009Z,77.00
2022-08-28T10:33:37.882Z,75.60
2022-08-28T10:36:33.251Z,75.50
2022-08-28T10:39:20.105Z,75.70
2022-08-28T10:41:59.093Z,75.30
2022-08-28T10:44:58.909Z,73.20
2022-08-28T10:47:29.546Z,74.80
2022-08-28T10:50:03.230Z,74.40
2022-08-28T10:52:41.759Z,73.80
2022-08-28T10:55:19.270Z,73.50
2022-08-28T10:58:04.144Z,73.60
2022-08-28T11:00:32.630Z,73.80
2022-08-28T11:03:32.989Z,73.80
2022-08-28T11:06:38.943Z,73.50
2022-08-28T11:09:26.711Z,74.50
2022-08-28T11:12:03.902Z,74.40
2022-08-28T11:14:47.767Z,74.60
2022-08-28T11:17:30.673Z,74.60
2022-08-28T11:20:25.131Z,73.60
2022-08-28T11:22:56.049Z,74.30
2022-08-28T11:25:57.525Z,73.60
2022-08-28T11:28:24.998Z,73.10
2022-08-28T11:31:06.690Z,73.20
2022-08-28T11:33:43.676Z,72.20
2022-08-28T11:36:22.041Z,72.50
2022-08-28T11:38:52.181Z,72.00
2022-08-28T11:41:28.725Z,71.80
2022-08-28T11:44:13.605Z,71.90
2022-08-28T11:46:47.532Z,71.70
2022-08-28T11:49:29.328Z,71.10
2022-08-28T11:52:14.384Z,71.50
2022-08-28T11:55:14.029Z,70.90
2022-08-28T12:01:02.815Z,70.30
2022-08-28T12:03:54.146Z,70.10
2022-08-28T12:07:05.802Z,69.80
2022-08-28T12:09:50.920Z,69.90
2022-08-28T12:12:21.472Z,69.90
2022-08-28T12:14:48.373Z,68.10
2022-08-28T12:17:22.626Z,67.80
2022-08-28T12:19:56.681Z,67.60
2022-08-28T12:22:42.286Z,67.40
2022-08-28T12:25:38.282Z,67.30
2022-08-28T12:28:31.647Z,67.90
2022-08-28T12:31:48.807Z,68.50
2022-08-28T12:34:58.051Z,68.30
2022-08-28T12:37:39.456Z,68.90
2022-08-28T12:40:20.933Z,68.30
2022-08-28T12:43:02.012Z,68.10
2022-08-28T12:45:54.980Z,68.30
2022-08-28T12:48:34.056Z,69.20
2022-08-28T12:51:08.568Z,69.20
2022-08-28T12:53:47.282Z,68.80
2022-08-28T12:56:18.189Z,68.50
2022-08-28T12:58:47.380Z,68.90
2022-08-28T13:01:33.239Z,68.90
2022-08-28T13:04:38.300Z,68.80
2022-08-28T13:07:20.740Z,68.70
2022-08-28T13:09:54.184Z,68.50
2022-08-28T13:12:54.765Z,68.70
2022-08-28T13:16:01.766Z,68.90
2022-08-28T13:19:03.916Z,69.30
2022-08-28T13:21:38.218Z,69.60
2022-08-28T13:24:27.419Z,69.80
2022-08-28T13:27:08.783Z,70.00
2022-08-28T13:29:37.322Z,70.60
2022-08-28T13:32:18.925Z,70.50
2022-08-28T13:35:17.559Z,70.70
2022-08-28T13:37:55.805Z,70.90
2022-08-28T13:40:56.372Z,71.30
2022-08-28T13:43:17.720Z,71.50
2022-08-28T13:45:48.626Z,71.60
2022-08-28T13:48:25.678Z,71.80
2022-08-28T13:51:03.143Z,72.10
2022-08-28T13:53:32.341Z,72.60
2022-08-28T13:56:00.705Z,72.40
2022-08-28T13:58:28.357Z,72.60
2022-08-28T14:00:55.749Z,72.60
2022-08-28T14:03:35.831Z,72.80
2022-08-28T14:06:14.681Z,73.00
2022-08-28T14:08:44.313Z,73.10
2022-08-28T14:11:13.825Z,73.00
2022-08-28T14:13:47.089Z,72.50
2022-08-28T14:16:26.726Z,72.20
2022-08-28T14:18:54.385Z,72.00
2022-08-28T14:21:24.697Z,71.80
2022-08-28T14:23:51.908Z,71.50
2022-08-28T14:26:18.945Z,71.70
2022-08-28T14:28:46.187Z,71.50
2022-08-28T14:31:14.988Z,71.80
2022-08-28T14:33:45.257Z,71.90
2022-08-28T14:36:23.333Z,72.10
2022-08-28T14:38:54.221Z,71.70
2022-08-28T14:41:23.071Z,71.50
2022-08-28T14:43:50.107Z,72.10
2022-08-28T14:46:23.545Z,71.00
2022-08-28T14:48:51.889Z,71.10
2022-08-28T14:51:19.378Z,71.00
2022-08-28T14:53:46.917Z,71.20
2022-08-28T14:56:16.067Z,71.00
2022-08-28T14:58:43.221Z,71.20
2022-08-28T15:01:10.284Z,71.40
2022-08-28T15:03:37.528Z,71.40
2022-08-28T15:06:09.387Z,71.40
2022-08-28T15:08:37.403Z,70.90
2022-08-28T15:11:17.975Z,70.80
2022-08-28T15:13:48.334Z,71.30
2022-08-28T15:16:31.022Z,70.10
2022-08-28T15:18:59.727Z,70.20
2022-08-28T15:21:34.178Z,70.10
2022-08-28T15:24:03.780Z,70.10
2022-08-28T15:26:31.361Z,69.80
2022-08-28T15:29:02.367Z,69.60
2022-08-28T15:31:38.002Z,69.70
2022-08-28T15:34:14.595Z,70.00
2022-08-28T15:36:44.058Z,70.00
2022-08-28T15:39:30.682Z,70.20
2022-08-28T15:41:59.304Z,70.20
2022-08-28T15:44:26.804Z,70.30
2022-08-28T15:47:01.590Z,70.30
2022-08-28T15:49:32.280Z,70.40
2022-08-28T15:52:04.006Z,70.30
2022-08-28T15:54:31.996Z,70.60
2022-08-28T15:56:59.340Z,70.60
2022-08-28T15:59:40.026Z,70.60
2022-08-28T16:02:14.473Z,70.70
2022-08-28T16:04:41.690Z,70.90
2022-08-28T16:07:08.773Z,70.80
2022-08-28T16:09:36.083Z,71.00
2022-08-28T16:12:03.773Z,71.10
2022-08-28T16:14:32.978Z,71.00
2022-08-28T16:17:05.771Z,71.10
2022-08-28T16:19:42.420Z,71.00
2022-08-28T16:22:12.027Z,71.50
2022-08-28T16:24:39.652Z,71.30
2022-08-28T16:27:08.667Z,71.20
2022-08-28T16:29:39.481Z,71.10
2022-08-28T16:32:06.519Z,71.10
2022-08-28T16:34:35.050Z,71.10
2022-08-28T16:37:04.397Z,71.40
2022-08-28T16:39:31.898Z,71.30
2022-08-28T16:41:59.833Z,71.40
2022-08-28T16:44:27.351Z,71.60
2022-08-28T16:46:55.734Z,71.50
2022-08-28T16:49:24.156Z,71.60
2022-08-28T16:51:51.808Z,71.70
2022-08-28T16:54:19.328Z,71.60
2022-08-28T16:56:47.038Z,71.70
2022-08-28T16:59:23.353Z,72.00
2022-08-28T17:01:53.902Z,73.00
2022-08-28T17:04:22.492Z,72.10
2022-08-28T17:06:50.203Z,72.30
2022-08-28T17:09:20.957Z,72.50
2022-08-28T17:11:52.376Z,72.50
2022-08-28T17:14:21.911Z,72.70
2022-08-28T17:16:50.189Z,72.60
2022-08-28T17:19:18.702Z,72.80
2022-08-28T17:22:04.071Z,72.80
2022-08-28T17:24:31.115Z,72.80
2022-08-28T17:27:02.016Z,73.00
2022-08-28T17:29:31.785Z,73.10
2022-08-28T17:31:59.513Z,73.10
2022-08-28T17:34:30.252Z,73.10
2022-08-28T17:36:57.867Z,73.20
2022-08-28T17:39:25.588Z,73.30
2022-08-28T17:41:52.719Z,73.40
2022-08-28T17:44:19.773Z,73.40
2022-08-28T17:46:47.358Z,73.50
2022-08-28T17:49:14.603Z,73.80
2022-08-28T17:51:44.068Z,73.60
2022-08-28T17:54:13.710Z,73.70
2022-08-28T17:56:42.158Z,73.90
2022-08-28T17:59:11.021Z,73.90
2022-08-28T18:01:38.907Z,73.80
2022-08-28T18:04:06.270Z,74.00
2022-08-28T18:06:34.714Z,74.00
2022-08-28T18:09:01.799Z,74.00
2022-08-28T18:11:29.732Z,73.80
2022-08-28T18:13:57.132Z,73.90
2022-08-28T18:16:28.903Z,74.00
2022-08-28T18:18:59.179Z,73.90
2022-08-28T18:21:26.492Z,73.70
2022-08-28T18:23:53.689Z,73.90
2022-08-28T18:26:21.435Z,73.90
2022-08-28T18:28:50.935Z,73.90
2022-08-28T18:31:18.629Z,73.80
2022-08-28T18:33:45.848Z,73.80
2022-08-28T18:36:14.991Z,73.80
2022-08-28T18:38:44.243Z,73.90
2022-08-28T18:41:12.182Z,73.90
2022-08-28T18:43:39.787Z,73.90
2022-08-28T18:46:09.456Z,74.00
2022-08-28T18:48:38.135Z,74.20
2022-08-28T18:51:13.206Z,74.20
2022-08-28T18:53:43.329Z,74.70
2022-08-28T18:56:12.342Z,74.40
2022-08-28T18:58:41.792Z,75.10
2022-08-28T19:01:10.155Z,74.50
2022-08-28T19:03:37.937Z,74.60
2022-08-28T19:06:06.339Z,74.60
2022-08-28T19:08:36.785Z,74.70
2022-08-28T19:11:08.840Z,74.70
2022-08-28T19:13:37.126Z,75.00
2022-08-28T19:16:05.815Z,74.80
2022-08-28T19:18:35.897Z,74.70
2022-08-28T19:21:15.864Z,74.80
2022-08-28T19:23:44.535Z,75.00
2022-08-28T19:26:27.242Z,75.00
2022-08-28T19:28:55.136Z,74.80
2022-08-28T19:31:23.600Z,74.90
2022-08-28T19:33:52.091Z,74.90
2022-08-28T19:36:19.541Z,75.00
2022-08-28T19:38:47.166Z,75.00
2022-08-28T19:41:15.033Z,75.00
2022-08-28T19:43:44.419Z,75.00
2022-08-28T19:46:20.177Z,74.90
2022-08-28T19:48:53.068Z,74.90
2022-08-28T19:51:23.993Z,75.10
2022-08-28T19:53:58.910Z,75.00
2022-08-28T19:56:29.071Z,75.00
2022-08-28T19:58:59.043Z,75.10
2022-08-28T20:01:29.957Z,75.00
2022-08-28T20:03:58.738Z,75.10
2022-08-28T20:06:26.621Z,75.10
2022-08-28T20:08:54.027Z,75.20
2022-08-28T20:11:30.498Z,75.20
2022-08-28T20:14:04.732Z,76.10
2022-08-28T20:16:41.548Z,75.20
2022-08-28T20:19:10.522Z,75.30
2022-08-28T20:21:42.554Z,75.30
2022-08-28T20:24:13.696Z,75.40
2022-08-28T20:26:41.405Z,75.40
2022-08-28T20:29:10.046Z,75.30
2022-08-28T20:31:44.823Z,75.40
2022-08-28T20:34:12.909Z,75.50
2022-08-28T20:36:40.353Z,75.30
2022-08-28T20:39:09.350Z,75.30
2022-08-28T20:41:39.779Z,75.40
2022-08-28T20:44:09.265Z,75.40
2022-08-28T20:46:41.385Z,75.40
2022-08-28T20:49:13.853Z,75.40
2022-08-28T20:52:00.931Z,75.70
2022-08-28T20:54:39.413Z,75.50
2022-08-28T20:57:10.715Z,75.90
2022-08-28T20:59:41.740Z,75.90
2022-08-28T21:02:17.362Z,76.00
2022-08-28T21:04:46.738Z,76.10
2022-08-28T21:07:16.545Z,76.10
2022-08-28T21:10:04.072Z,76.10
2022-08-28T21:12:31.596Z,76.10
2022-08-28T21:14:59.447Z,76.10
2022-08-28T21:17:26.734Z,76.10
2022-08-28T21:20:02.852Z,76.20
2022-08-28T21:22:31.742Z,76.20
2022-08-28T21:24:59.887Z,76.20
2022-08-28T21:27:27.451Z,76.30
2022-08-28T21:29:59.472Z,76.30
2022-08-28T21:32:27.787Z,76.30
2022-08-28T21:34:55.287Z,76.30
2022-08-28T21:37:22.773Z,76.30
2022-08-28T21:39:49.910Z,76.30
2022-08-28T21:42:17.225Z,76.30
2022-08-28T21:44:51.504Z,76.30
2022-08-28T21:47:22.947Z,76.40
2022-08-28T21:49:52.811Z,76.40
2022-08-28T21:52:22.916Z,76.50
2022-08-28T21:54:50.178Z,76.60
2022-08-28T21:57:17.764Z,76.50
2022-08-28T21:59:44.770Z,76.60
2022-08-28T22:02:11.906Z,76.60
2022-08-28T22:04:39.489Z,76.70
2022-08-28T22:07:07.020Z,76.70
2022-08-28T22:09:34.007Z,76.70
2022-08-28T22:12:01.732Z,76.70
2022-08-28T22:14:29.162Z,76.70
2022-08-28T22:16:56.752Z,76.70
2022-08-28T22:19:24.259Z,76.80
2022-08-28T22:22:09.625Z,76.80
2022-08-28T22:24:37.569Z,76.70
2022-08-28T22:27:05.808Z,76.80
2022-08-28T22:29:36.478Z,76.80
2022-08-28T22:32:05.293Z,76.80
2022-08-28T22:34:38.822Z,76.90
2022-08-28T22:37:06.618Z,76.90
2022-08-28T22:39:34.325Z,77.00
2022-08-28T22:42:02.022Z,77.00
2022-08-28T22:44:29.530Z,77.00
2022-08-28T22:46:56.748Z,77.00
2022-08-28T22:49:23.936Z,77.10
2022-08-28T22:51:51.215Z,77.00
2022-08-28T22:54:18.352Z,77.00
2022-08-28T22:56:45.369Z,77.00
2022-08-28T22:59:12.632Z,77.00
2022-08-28T23:01:42.464Z,77.10
2022-08-28T23:04:11.203Z,77.10
2022-08-28T23:06:40.205Z,77.20
2022-08-28T23:09:08.927Z,77.10
2022-08-28T23:11:37.852Z,77.20
2022-08-28T23:14:06.341Z,77.30
2022-08-28T23:16:35.363Z,77.40
2022-08-28T23:19:10.356Z,77.30
2022-08-28T23:21:43.758Z,77.30
2022-08-28T23:24:16.505Z,77.30
2022-08-28T23:26:44.992Z,78.00
2022-08-28T23:29:13.325Z,77.20
2022-08-28T23:31:41.069Z,77.30
2022-08-28T23:34:08.707Z,77.20
2022-08-28T23:36:36.517Z,77.30
2022-08-28T23:39:04.960Z,77.30
2022-08-28T23:41:33.212Z,77.40
2022-08-28T23:44:03.201Z,77.30
2022-08-28T23:46:32.499Z,77.50
2022-08-28T23:49:00.222Z,77.50
2022-08-28T23:51:27.366Z,77.50
2022-08-28T23:53:55.149Z,77.60
2022-08-28T23:56:22.321Z,77.60
2022-08-28T23:58:55.535Z,77.60
